createdAt,value
2019-03-18T00:00:34.236Z,4.08
2019-03-18T00:03:02.729Z,4.02
2019-03-18T00:05:35.035Z,4.12
2019-03-18T00:08:07.289Z,4.07
2019-03-18T00:10:36.007Z,4.03
2019-03-18T00:13:04.710Z,4.02
2019-03-18T00:15:33.211Z,4.02
2019-03-18T00:18:01.690Z,4.01
2019-03-18T00:20:30.087Z,4.05
2019-03-18T00:22:58.477Z,4.06
2019-03-18T00:25:26.966Z,4.13
2019-03-18T00:27:55.419Z,4.16
2019-03-18T00:30:23.793Z,4.16
2019-03-18T00:32:52.203Z,4.07
2019-03-18T00:35:20.626Z,4.04
2019-03-18T00:37:49.036Z,4.06
2019-03-18T00:40:21.016Z,4.04
2019-03-18T00:42:49.692Z,4.11
2019-03-18T00:45:19.245Z,4.06
2019-03-18T00:47:47.833Z,4.15
2019-03-18T00:50:17.394Z,4.18
2019-03-18T00:52:49.778Z,4.11
2019-03-18T00:55:17.474Z,4.14
2019-03-18T00:57:45.837Z,4.10
2019-03-18T01:00:17.161Z,4.20
2019-03-18T01:02:49.293Z,4.22
2019-03-18T01:05:16.763Z,4.20
2019-03-18T01:07:45.180Z,4.33
2019-03-18T01:10:17.479Z,4.41
2019-03-18T01:12:45.909Z,4.38
2019-03-18T01:15:26.865Z,4.34
2019-03-18T01:17:46.036Z,4.41
2019-03-18T01:20:15.258Z,4.39
2019-03-18T01:22:44.225Z,4.39
2019-03-18T01:25:12.784Z,4.43
2019-03-18T01:27:41.537Z,4.42
2019-03-18T01:30:11.969Z,4.32
2019-03-18T01:32:41.585Z,4.34
2019-03-18T01:35:11.133Z,4.08
2019-03-18T01:37:39.556Z,4.46
2019-03-18T01:40:10.431Z,4.46
2019-03-18T01:42:38.924Z,4.37
2019-03-18T01:45:09.092Z,4.33
2019-03-18T01:47:37.504Z,4.29
2019-03-18T01:50:09.083Z,4.34
2019-03-18T01:52:37.485Z,4.23
2019-03-18T01:55:07.044Z,4.26
2019-03-18T01:57:35.443Z,4.31
2019-03-18T02:00:05.916Z,4.31
2019-03-18T02:02:34.346Z,4.30
2019-03-18T02:05:02.737Z,4.23
2019-03-18T02:07:33.260Z,4.22
2019-03-18T02:10:01.650Z,4.20
2019-03-18T02:12:30.059Z,3.84
2019-03-18T02:14:58.463Z,3.97
2019-03-18T02:17:30.317Z,3.84
2019-03-18T02:19:57.966Z,3.89
2019-03-18T02:22:26.317Z,3.93
2019-03-18T02:24:56.716Z,3.97
2019-03-18T02:27:24.862Z,3.96
2019-03-18T02:29:53.265Z,3.77
2019-03-18T02:32:21.634Z,3.72
2019-03-18T02:34:50.046Z,3.71
2019-03-18T02:37:18.471Z,3.70
2019-03-18T02:39:49.292Z,3.66
2019-03-18T02:42:17.096Z,3.71
2019-03-18T02:44:45.493Z,3.69
2019-03-18T02:47:13.915Z,3.76
2019-03-18T02:49:42.333Z,3.73
2019-03-18T02:52:10.776Z,3.75
2019-03-18T02:54:39.155Z,3.74
2019-03-18T02:57:07.590Z,3.69
2019-03-18T02:59:36.003Z,3.72
2019-03-18T03:02:05.684Z,3.63
2019-03-18T03:04:34.071Z,3.66
2019-03-18T03:07:02.515Z,3.71
2019-03-18T03:09:30.915Z,3.77
2019-03-18T03:11:59.303Z,3.81
2019-03-18T03:14:27.814Z,3.77
2019-03-18T03:16:57.282Z,3.79
2019-03-18T03:19:25.700Z,3.77
2019-03-18T03:21:54.214Z,3.83
2019-03-18T03:24:22.627Z,3.92
2019-03-18T03:26:51.039Z,3.94
2019-03-18T03:29:19.452Z,3.95
2019-03-18T03:31:47.854Z,3.88
2019-03-18T03:34:16.250Z,3.89
2019-03-18T03:36:44.648Z,3.92
2019-03-18T03:39:13.069Z,3.96
2019-03-18T03:41:41.491Z,4.03
2019-03-18T03:44:09.906Z,4.25
2019-03-18T03:46:43.425Z,4.31
2019-03-18T03:49:11.416Z,4.21
2019-03-18T03:51:39.835Z,4.17
2019-03-18T03:54:09.406Z,3.99
2019-03-18T03:56:37.978Z,4.01
2019-03-18T03:59:06.356Z,3.96
2019-03-18T04:01:36.985Z,3.92
2019-03-18T04:04:06.528Z,3.81
2019-03-18T04:06:35.037Z,3.70
2019-03-18T04:09:05.171Z,3.75
2019-03-18T04:11:33.560Z,3.83
2019-03-18T04:14:01.955Z,3.70
2019-03-18T04:16:31.302Z,3.71
2019-03-18T04:18:59.719Z,3.66
2019-03-18T04:21:28.127Z,3.61
2019-03-18T04:24:00.005Z,3.56
2019-03-18T04:26:28.681Z,3.57
2019-03-18T04:28:57.065Z,3.56
2019-03-18T04:31:25.465Z,3.65
2019-03-18T04:33:53.874Z,3.73
2019-03-18T04:36:23.344Z,3.78
2019-03-18T04:38:52.845Z,3.82
2019-03-18T04:41:21.247Z,3.86
2019-03-18T04:43:52.129Z,3.88
2019-03-18T04:46:20.529Z,3.86
2019-03-18T04:48:50.400Z,3.88
2019-03-18T04:51:22.850Z,3.86
2019-03-18T04:53:51.279Z,3.77
2019-03-18T04:56:23.333Z,3.83
2019-03-18T04:58:51.983Z,3.85
2019-03-18T05:01:21.195Z,3.89
2019-03-18T05:03:51.926Z,3.97
2019-03-18T05:06:20.606Z,4.02
2019-03-18T05:08:49.011Z,4.03
2019-03-18T05:11:17.427Z,3.97
2019-03-18T05:13:45.898Z,3.93
2019-03-18T05:16:14.246Z,3.87
2019-03-18T05:18:42.681Z,3.52
2019-03-18T05:21:15.813Z,3.37
2019-03-18T05:23:44.211Z,3.26
2019-03-18T05:26:15.922Z,3.17
2019-03-18T05:28:44.324Z,3.20
2019-03-18T05:31:12.714Z,3.26
2019-03-18T05:33:42.063Z,3.31
2019-03-18T05:36:10.465Z,3.35
2019-03-18T05:38:38.877Z,3.43
2019-03-18T05:41:07.285Z,3.52
2019-03-18T05:43:35.699Z,3.46
2019-03-18T05:46:04.167Z,3.52
2019-03-18T05:48:33.519Z,3.50
2019-03-18T05:51:01.905Z,3.52
2019-03-18T05:53:31.465Z,3.58
2019-03-18T05:56:03.435Z,3.65
2019-03-18T05:58:32.930Z,3.72
2019-03-18T06:01:01.376Z,3.76
2019-03-18T06:03:32.170Z,3.68
2019-03-18T06:06:00.540Z,3.70
2019-03-18T06:08:31.700Z,3.78
2019-03-18T06:11:00.121Z,3.85
2019-03-18T06:13:29.545Z,3.82
2019-03-18T06:15:58.003Z,3.83
2019-03-18T06:18:27.420Z,3.84
2019-03-18T06:20:57.947Z,3.75
2019-03-18T06:23:26.336Z,3.87
2019-03-18T06:25:54.728Z,3.85
2019-03-18T06:28:23.209Z,3.94
2019-03-18T06:30:51.597Z,4.01
2019-03-18T06:33:22.256Z,4.04
2019-03-18T06:35:52.897Z,4.10
2019-03-18T06:38:21.302Z,4.31
2019-03-18T06:40:51.031Z,4.37
2019-03-18T06:43:19.445Z,4.39
2019-03-18T06:45:47.822Z,4.44
2019-03-18T06:48:24.458Z,4.42
2019-03-18T06:50:53.844Z,4.45
2019-03-18T06:53:22.181Z,4.47
2019-03-18T06:55:50.584Z,4.43
2019-03-18T06:58:19.756Z,4.35
2019-03-18T07:00:50.768Z,4.37
2019-03-18T07:03:19.406Z,4.30
2019-03-18T07:05:47.813Z,4.30
2019-03-18T07:08:16.207Z,4.36
2019-03-18T07:10:44.688Z,4.38
2019-03-18T07:13:13.063Z,4.31
2019-03-18T07:15:41.652Z,4.37
2019-03-18T07:18:18.698Z,4.40
2019-03-18T07:20:49.774Z,4.55
2019-03-18T07:23:18.582Z,4.60
2019-03-18T07:25:47.165Z,4.72
2019-03-18T07:28:18.051Z,4.88
2019-03-18T07:30:45.692Z,4.87
2019-03-18T07:33:14.096Z,4.96
2019-03-18T07:35:44.609Z,5.10
2019-03-18T07:38:14.127Z,5.04
2019-03-18T07:40:42.524Z,5.26
2019-03-18T07:43:15.002Z,5.35
2019-03-18T07:45:42.651Z,5.42
2019-03-18T07:48:12.555Z,5.53
2019-03-18T07:50:41.105Z,5.83
2019-03-18T07:53:09.522Z,6.36
2019-03-18T07:55:37.964Z,7.45
2019-03-18T07:58:07.381Z,7.90
2019-03-18T08:00:35.886Z,7.90
2019-03-18T08:03:04.462Z,7.58
2019-03-18T08:05:35.278Z,7.52
2019-03-18T08:08:02.971Z,7.76
2019-03-18T08:10:31.362Z,7.89
2019-03-18T08:12:59.768Z,7.92
2019-03-18T08:15:28.165Z,7.72
2019-03-18T08:17:56.565Z,7.20
2019-03-18T08:20:27.403Z,6.73
2019-03-18T08:22:55.826Z,6.54
2019-03-18T08:25:24.218Z,6.14
2019-03-18T08:27:52.634Z,6.00
2019-03-18T08:30:21.022Z,5.74
2019-03-18T08:32:49.416Z,5.75
2019-03-18T08:35:17.860Z,5.92
2019-03-18T08:37:46.248Z,5.89
2019-03-18T08:40:14.730Z,6.21
2019-03-18T08:42:44.066Z,6.80
2019-03-18T08:45:14.487Z,7.13
2019-03-18T08:47:42.896Z,7.64
2019-03-18T08:50:12.773Z,7.86
2019-03-18T08:52:41.520Z,8.03
2019-03-18T08:55:11.092Z,8.36
2019-03-18T08:57:39.480Z,8.11
2019-03-18T09:00:13.367Z,8.23
2019-03-18T09:02:41.781Z,8.16
2019-03-18T09:05:10.534Z,8.22
2019-03-18T09:07:39.101Z,8.15
2019-03-18T09:10:15.096Z,8.28
2019-03-18T09:12:43.561Z,8.14
2019-03-18T09:15:14.918Z,8.20
2019-03-18T09:17:43.381Z,8.59
2019-03-18T09:20:13.922Z,8.63
2019-03-18T09:22:42.625Z,8.73
2019-03-18T09:25:13.084Z,8.75
2019-03-18T09:27:44.129Z,8.79
2019-03-18T09:30:17.854Z,8.79
2019-03-18T09:32:49.094Z,8.81
2019-03-18T09:35:19.577Z,8.80
2019-03-18T09:37:50.498Z,8.84
2019-03-18T09:40:18.938Z,8.60
2019-03-18T09:42:47.324Z,8.46
2019-03-18T09:45:22.084Z,8.24
2019-03-18T09:47:50.470Z,8.17
2019-03-18T09:50:18.998Z,7.98
2019-03-18T09:52:47.422Z,8.05
2019-03-18T09:55:17.171Z,8.55
2019-03-18T09:57:45.521Z,8.70
2019-03-18T10:00:27.350Z,8.77
2019-03-18T10:02:55.698Z,8.53
2019-03-18T10:05:24.135Z,7.25
2019-03-18T10:07:52.571Z,6.72
2019-03-18T10:10:20.971Z,6.72
2019-03-18T10:12:50.430Z,6.03
2019-03-18T10:15:25.630Z,6.07
2019-03-18T10:17:53.374Z,6.29
2019-03-18T10:20:21.766Z,6.52
2019-03-18T10:22:50.193Z,6.68
2019-03-18T10:25:18.580Z,6.77
2019-03-18T10:27:46.995Z,6.84
2019-03-18T10:30:16.343Z,7.01
2019-03-18T10:32:44.741Z,7.15
2019-03-18T10:35:14.177Z,7.15
2019-03-18T10:37:42.583Z,7.31
2019-03-18T10:40:16.793Z,7.55
2019-03-18T10:42:45.193Z,7.76
2019-03-18T10:45:14.420Z,7.92
2019-03-18T10:47:42.832Z,8.06
2019-03-18T10:50:13.123Z,8.14
2019-03-18T10:52:41.557Z,8.01
2019-03-18T10:55:10.776Z,7.73
2019-03-18T10:57:39.152Z,7.50
2019-03-18T11:00:16.721Z,7.43
2019-03-18T11:02:45.629Z,7.72
2019-03-18T11:05:14.748Z,7.83
2019-03-18T11:07:43.152Z,7.91
2019-03-18T11:10:19.253Z,8.02
2019-03-18T11:12:52.712Z,8.15
2019-03-18T11:15:22.057Z,8.31
2019-03-18T11:17:52.968Z,8.40
2019-03-18T11:20:21.449Z,8.53
2019-03-18T11:22:49.949Z,8.65
2019-03-18T11:25:20.455Z,8.80
2019-03-18T11:27:48.475Z,9.01
2019-03-18T11:30:24.191Z,8.66
2019-03-18T11:32:56.256Z,8.19
2019-03-18T11:35:31.435Z,7.96
2019-03-18T11:38:00.822Z,7.85
2019-03-18T11:40:29.284Z,7.78
2019-03-18T11:42:57.940Z,7.65
2019-03-18T11:45:27.322Z,7.66
2019-03-18T11:47:55.756Z,7.71
2019-03-18T11:50:24.216Z,7.74
2019-03-18T11:52:52.609Z,7.66
2019-03-18T11:55:26.899Z,7.78
2019-03-18T11:57:55.380Z,7.70
2019-03-18T12:00:25.112Z,7.63
2019-03-18T12:02:53.518Z,7.55
2019-03-18T12:05:29.051Z,7.47
2019-03-18T12:07:57.459Z,7.54
2019-03-18T12:10:26.270Z,7.65
2019-03-18T12:12:54.899Z,7.83
2019-03-18T12:15:27.421Z,8.01
2019-03-18T12:17:55.109Z,8.37
2019-03-18T12:20:25.681Z,8.86
2019-03-18T12:22:54.372Z,8.93
2019-03-18T12:25:23.853Z,8.48
2019-03-18T12:27:52.326Z,8.17
2019-03-18T12:30:22.977Z,7.46
2019-03-18T12:32:51.445Z,6.96
2019-03-18T12:35:22.205Z,6.58
2019-03-18T12:37:50.620Z,6.33
2019-03-18T12:40:20.294Z,6.27
2019-03-18T12:42:49.864Z,6.15
2019-03-18T12:45:22.882Z,6.33
2019-03-18T12:47:51.275Z,6.35
2019-03-18T12:50:39.193Z,6.40
2019-03-18T12:52:55.004Z,6.62
2019-03-18T12:55:24.372Z,6.77
2019-03-18T12:57:55.520Z,7.01
2019-03-18T13:00:40.116Z,7.21
2019-03-18T13:03:05.271Z,7.64
2019-03-18T13:05:33.705Z,7.90
2019-03-18T13:08:02.189Z,8.03
2019-03-18T13:10:32.961Z,7.69
2019-03-18T13:13:03.939Z,7.35
2019-03-18T13:15:36.522Z,7.17
2019-03-18T13:18:08.832Z,7.13
2019-03-18T13:20:36.563Z,6.87
2019-03-18T13:23:06.108Z,6.94
2019-03-18T13:25:38.493Z,7.02
2019-03-18T13:28:06.870Z,6.95
2019-03-18T13:30:35.253Z,6.93
2019-03-18T13:33:03.705Z,7.08
2019-03-18T13:35:32.052Z,7.26
2019-03-18T13:38:06.233Z,7.35
2019-03-18T13:40:34.574Z,7.29
2019-03-18T13:43:03.974Z,7.65
2019-03-18T13:45:33.324Z,7.83
2019-03-18T13:48:01.770Z,7.47
2019-03-18T13:50:33.903Z,6.94
2019-03-18T13:53:04.455Z,6.41
2019-03-18T13:55:32.529Z,6.06
2019-03-18T13:58:00.901Z,5.94
2019-03-18T14:00:32.973Z,6.00
2019-03-18T14:03:00.603Z,5.94
2019-03-18T14:05:32.215Z,6.17
2019-03-18T14:08:04.615Z,6.34
2019-03-18T14:10:33.020Z,6.47
2019-03-18T14:13:01.424Z,6.53
2019-03-18T14:15:29.858Z,6.62
2019-03-18T14:18:00.703Z,6.52
2019-03-18T14:20:29.878Z,6.52
2019-03-18T14:22:58.294Z,6.51
2019-03-18T14:25:26.681Z,6.50
2019-03-18T14:27:55.088Z,6.62
2019-03-18T14:30:23.987Z,6.47
2019-03-18T14:32:52.454Z,6.71
2019-03-18T14:35:22.226Z,6.52
2019-03-18T14:37:50.818Z,6.67
2019-03-18T14:40:23.132Z,6.76
2019-03-18T14:42:51.543Z,6.72
2019-03-18T14:45:25.564Z,6.72
2019-03-18T14:47:53.955Z,6.65
2019-03-18T14:50:29.865Z,6.65
2019-03-18T14:53:01.459Z,6.54
2019-03-18T14:55:29.830Z,6.60
2019-03-18T14:57:59.183Z,6.50
2019-03-18T15:00:32.639Z,6.30
2019-03-18T15:03:01.047Z,6.27
2019-03-18T15:05:37.373Z,6.40
2019-03-18T15:08:05.815Z,6.38
2019-03-18T15:10:34.206Z,6.37
2019-03-18T15:13:05.306Z,6.32
2019-03-18T15:15:34.679Z,6.15
2019-03-18T15:18:05.891Z,5.93
2019-03-18T15:20:39.552Z,6.01
2019-03-18T15:23:09.032Z,6.08
2019-03-18T15:25:40.191Z,6.06
2019-03-18T15:28:09.802Z,6.16
2019-03-18T15:30:41.998Z,6.25
2019-03-18T15:33:10.432Z,6.26
2019-03-18T15:35:38.819Z,6.26
2019-03-18T15:38:07.271Z,6.24
2019-03-18T15:40:39.823Z,6.14
2019-03-18T15:43:08.221Z,6.10
2019-03-18T15:45:36.652Z,5.95
2019-03-18T15:48:05.984Z,5.90
2019-03-18T15:50:34.801Z,5.76
2019-03-18T15:53:17.896Z,5.71
2019-03-18T15:55:48.818Z,5.80
2019-03-18T15:58:23.208Z,5.55
2019-03-18T16:00:51.637Z,5.39
2019-03-18T16:03:22.815Z,5.23
2019-03-18T16:05:51.207Z,5.09
2019-03-18T16:08:21.579Z,5.11
2019-03-18T16:10:57.878Z,5.04
2019-03-18T16:13:34.636Z,5.12
2019-03-18T16:16:07.103Z,4.99
2019-03-18T16:18:35.582Z,4.95
2019-03-18T16:21:07.779Z,4.95
2019-03-18T16:23:36.238Z,4.82
2019-03-18T16:26:04.737Z,4.83
2019-03-18T16:28:33.190Z,4.80
2019-03-18T16:31:01.617Z,4.83
2019-03-18T16:33:32.458Z,4.72
2019-03-18T16:36:00.226Z,4.85
2019-03-18T16:38:28.614Z,4.95
2019-03-18T16:40:59.202Z,4.91
2019-03-18T16:43:27.826Z,4.93
2019-03-18T16:45:56.241Z,4.99
2019-03-18T16:48:24.631Z,5.01
2019-03-18T16:50:53.046Z,5.00
2019-03-18T16:53:21.488Z,4.93
2019-03-18T16:55:52.018Z,4.85
2019-03-18T16:58:25.250Z,4.81
2019-03-18T17:00:53.276Z,4.83
2019-03-18T17:03:21.658Z,4.78
2019-03-18T17:05:51.158Z,4.59
2019-03-18T17:08:22.016Z,4.63
2019-03-18T17:10:50.429Z,4.64
2019-03-18T17:13:25.106Z,4.42
2019-03-18T17:15:53.539Z,4.37
2019-03-18T17:18:23.736Z,4.44
2019-03-18T17:20:54.328Z,4.43
2019-03-18T17:23:26.362Z,4.53
2019-03-18T17:25:57.198Z,4.54
2019-03-18T17:28:32.743Z,4.43
2019-03-18T17:31:01.179Z,4.38
2019-03-18T17:33:29.603Z,4.29
2019-03-18T17:36:03.688Z,4.21
2019-03-18T17:38:31.501Z,4.17
2019-03-18T17:40:59.885Z,4.12
2019-03-18T17:43:34.907Z,4.08
2019-03-18T17:46:05.743Z,4.02
2019-03-18T17:48:37.165Z,3.91
2019-03-18T17:51:06.484Z,3.82
2019-03-18T17:53:34.933Z,3.80
2019-03-18T17:56:07.319Z,3.73
2019-03-18T17:58:37.663Z,3.70
2019-03-18T18:01:06.981Z,3.70
2019-03-18T18:03:38.128Z,3.67
2019-03-18T18:06:10.435Z,3.71
2019-03-18T18:08:45.672Z,3.84
2019-03-18T18:11:14.995Z,3.85
2019-03-18T18:13:49.597Z,3.86
2019-03-18T18:16:20.471Z,3.91
2019-03-18T18:18:51.322Z,3.92
2019-03-18T18:21:20.189Z,3.92
2019-03-18T18:23:48.583Z,3.99
2019-03-18T18:26:20.313Z,3.96
2019-03-18T18:28:47.975Z,4.01
2019-03-18T18:31:27.182Z,4.05
2019-03-18T18:33:56.099Z,4.03
2019-03-18T18:36:30.817Z,4.05
2019-03-18T18:38:59.209Z,4.15
2019-03-18T18:41:30.235Z,4.19
2019-03-18T18:43:58.643Z,4.21
2019-03-18T18:46:34.435Z,4.23
2019-03-18T18:49:04.870Z,4.32
2019-03-18T18:51:33.281Z,4.32
2019-03-18T18:54:02.661Z,4.39
2019-03-18T18:56:31.090Z,4.41
2019-03-18T18:59:04.675Z,4.46
2019-03-18T19:01:37.945Z,4.46
2019-03-18T19:04:09.093Z,4.47
2019-03-18T19:06:41.336Z,4.54
2019-03-18T19:09:13.763Z,4.47
2019-03-18T19:11:44.920Z,4.43
2019-03-18T19:14:16.332Z,4.44
2019-03-18T19:16:47.421Z,4.47
2019-03-18T19:19:22.028Z,4.42
2019-03-18T19:21:50.372Z,4.42
2019-03-18T19:24:18.875Z,4.37
2019-03-18T19:26:47.472Z,4.34
2019-03-18T19:29:19.198Z,4.30
2019-03-18T19:32:02.343Z,4.31
2019-03-18T19:34:30.713Z,4.29
2019-03-18T19:36:59.194Z,4.26
2019-03-18T19:39:27.584Z,4.16
2019-03-18T19:42:05.559Z,4.14
2019-03-18T19:44:35.354Z,4.18
2019-03-18T19:47:03.303Z,4.15
2019-03-18T19:49:31.719Z,4.19
2019-03-18T19:52:00.185Z,4.17
2019-03-18T19:54:31.021Z,4.14
2019-03-18T19:56:59.423Z,4.25
2019-03-18T19:59:31.724Z,4.33
2019-03-18T20:02:01.203Z,4.26
2019-03-18T20:04:29.624Z,4.15
2019-03-18T20:06:58.046Z,4.02
2019-03-18T20:09:26.428Z,3.96
2019-03-18T20:12:01.129Z,3.83
2019-03-18T20:14:29.482Z,3.80
2019-03-18T20:17:00.394Z,3.70
2019-03-18T20:19:28.824Z,3.56
2019-03-18T20:21:57.237Z,3.46
2019-03-18T20:24:26.693Z,1.97
2019-03-18T20:26:58.693Z,3.42
2019-03-18T20:29:39.611Z,3.38
2019-03-18T20:32:05.133Z,3.36
2019-03-18T20:34:33.483Z,3.24
2019-03-18T20:37:01.921Z,3.23
2019-03-18T20:39:30.378Z,3.21
2019-03-18T20:41:58.833Z,3.25
2019-03-18T20:44:27.238Z,3.28
2019-03-18T20:46:58.605Z,3.29
2019-03-18T20:49:28.121Z,3.31
2019-03-18T20:52:02.155Z,3.25
2019-03-18T20:54:30.585Z,3.22
2019-03-18T20:56:58.941Z,3.23
2019-03-18T20:59:27.390Z,3.17
2019-03-18T21:01:55.771Z,3.22
2019-03-18T21:04:24.192Z,3.16
2019-03-18T21:06:52.725Z,3.10
2019-03-18T21:09:22.219Z,3.07
2019-03-18T21:11:50.607Z,3.00
2019-03-18T21:14:20.170Z,3.03
2019-03-18T21:16:48.559Z,3.05
2019-03-18T21:19:22.158Z,3.05
2019-03-18T21:21:50.657Z,3.08
2019-03-18T21:24:35.662Z,3.11
2019-03-18T21:27:06.447Z,3.07
2019-03-18T21:29:34.371Z,3.07
2019-03-18T21:32:06.454Z,3.19
2019-03-18T21:34:38.712Z,3.30
2019-03-18T21:40:09.267Z,3.36
2019-03-18T21:42:40.163Z,3.50
2019-03-18T21:45:19.567Z,3.51
2019-03-18T21:47:48.136Z,3.52
2019-03-18T21:50:19.296Z,3.49
2019-03-18T21:52:48.758Z,3.49
2019-03-18T21:55:19.067Z,3.38
2019-03-18T21:57:50.748Z,3.25
2019-03-18T22:00:25.663Z,3.19
2019-03-18T22:02:54.038Z,3.11
2019-03-18T22:05:22.474Z,3.15
2019-03-18T22:07:50.881Z,3.16
2019-03-18T22:10:25.796Z,3.16
2019-03-18T22:12:57.068Z,3.06
2019-03-18T22:15:26.465Z,3.07
2019-03-18T22:17:57.407Z,3.13
2019-03-18T22:20:25.825Z,3.01
2019-03-18T22:22:58.183Z,3.00
2019-03-18T22:25:25.830Z,2.96
2019-03-18T22:27:56.931Z,2.99
2019-03-18T22:30:28.812Z,2.95
2019-03-18T22:33:01.095Z,2.93
2019-03-18T22:35:34.775Z,2.88
2019-03-18T22:38:02.823Z,2.89
2019-03-18T22:40:31.195Z,2.84
2019-03-18T22:42:59.630Z,2.87
2019-03-18T22:45:28.061Z,2.89
2019-03-18T22:47:57.437Z,2.89
2019-03-18T22:50:25.819Z,2.96
2019-03-18T22:52:58.253Z,3.00
2019-03-18T22:55:25.911Z,3.09
2019-03-18T22:57:54.259Z,3.14
2019-03-18T23:00:40.754Z,3.11
2019-03-18T23:03:09.172Z,3.20
2019-03-18T23:05:38.622Z,3.26
2019-03-18T23:08:07.079Z,3.28
2019-03-18T23:10:35.452Z,3.31
2019-03-18T23:13:03.930Z,3.35
2019-03-18T23:15:34.480Z,3.46
2019-03-18T23:18:05.810Z,3.46
2019-03-18T23:20:34.249Z,3.36
2019-03-18T23:23:06.515Z,3.26
2019-03-18T23:25:34.938Z,3.09
2019-03-18T23:28:03.345Z,2.96
2019-03-18T23:30:35.623Z,2.93
2019-03-18T23:33:06.977Z,2.89
2019-03-18T23:35:36.470Z,2.81
2019-03-18T23:38:04.942Z,2.74
2019-03-18T23:40:34.212Z,2.71
2019-03-18T23:43:02.634Z,2.69
2019-03-18T23:45:37.780Z,2.72
2019-03-18T23:48:08.684Z,2.69
2019-03-18T23:50:37.069Z,2.66
2019-03-18T23:53:05.474Z,2.62
2019-03-18T23:55:33.911Z,2.58
2019-03-18T23:58:02.291Z,2.60
